Time;durP1;ratioP1;P1;durP2;ratioP2;P2;SDS_P1;SDS_P2;PMS_P1;PMS_P2;Temp;Humidity;BMP_temperature;BMP_pressure;BME280_temperature;BME280_humidity;BME280_pressure;Samples;Min_cycle;Max_cycle;Signal;HPM_P1;HPM_P2
2023/09/11 00:02:26;;;;;;;15.02;11.20;;;;;;;;;;5055288;28;20032;-66
2023/09/11 00:04:52;;;;;;;14.18;10.98;;;;;;;;;;5055626;28;20033;-66
2023/09/11 00:07:17;;;;;;;15.73;11.30;;;;;;;;;;5055634;28;20078;-63
2023/09/11 00:09:43;;;;;;;14.20;10.25;;;;;;;;;;5055776;28;20041;-65
2023/09/11 00:12:08;;;;;;;13.55;11.07;;;;;;;;;;5055478;28;20044;-64
2023/09/11 00:14:34;;;;;;;16.95;11.40;;;;;;;;;;5055417;28;20099;-63
2023/09/11 00:16:59;;;;;;;14.73;11.30;;;;;;;;;;5055233;28;20480;-61
2023/09/11 00:19:25;;;;;;;13.18;10.68;;;;;;;;;;5055281;28;20024;-63
2023/09/11 00:21:50;;;;;;;12.88;10.68;;;;;;;;;;5055072;28;20040;-62
2023/09/11 00:24:16;;;;;;;12.02;10.05;;;;;;;;;;5055048;28;20104;-61
2023/09/11 00:26:41;;;;;;;15.52;10.52;;;;;;;;;;5055198;28;20108;-61
2023/09/11 00:29:06;;;;;;;14.43;10.68;;;;;;;;;;5055112;28;20029;-61
2023/09/11 00:31:32;;;;;;;13.73;9.80;;;;;;;;;;5054814;28;20028;-62
2023/09/11 00:33:57;;;;;;;15.35;11.30;;;;;;;;;;5055016;28;20484;-61
2023/09/11 00:36:23;;;;;;;17.20;11.80;;;;;;;;;;5054951;28;20037;-63
2023/09/11 00:38:50;;;;;;;14.77;11.18;;;;;;;;;;5053631;28;20025;-62
2023/09/11 00:41:15;;;;;;;18.77;10.68;;;;;;;;;;5054682;28;20033;-61
2023/09/11 00:43:41;;;;;;;12.13;10.00;;;;;;;;;;5054855;28;20051;-61
2023/09/11 00:46:06;;;;;;;19.02;10.60;;;;;;;;;;5054563;28;20075;-61
2023/09/11 00:48:32;;;;;;;14.52;11.00;;;;;;;;;;5054786;28;20110;-62
2023/09/11 00:50:58;;;;;;;13.70;10.90;;;;;;;;;;5054587;28;20057;-61
2023/09/11 00:53:25;;;;;;;14.20;10.73;;;;;;;;;;5054408;28;20454;-62
2023/09/11 00:55:52;;;;;;;12.68;10.32;;;;;;;;;;5054769;28;20037;-62
2023/09/11 00:58:17;;;;;;;12.70;10.05;;;;;;;;;;5054734;28;20051;-61
2023/09/11 01:00:45;;;;;;;12.55;10.05;;;;;;;;;;5054361;28;20402;-62
2023/09/11 01:03:12;;;;;;;14.75;9.68;;;;;;;;;;5054472;28;20025;-62
2023/09/11 01:05:38;;;;;;;13.18;10.23;;;;;;;;;;5054189;28;20104;-62
2023/09/11 01:08:04;;;;;;;12.50;10.10;;;;;;;;;;5054387;28;20112;-61
2023/09/11 01:10:29;;;;;;;16.75;9.90;;;;;;;;;;5054412;28;20035;-63
2023/09/11 01:12:55;;;;;;;14.32;9.82;;;;;;;;;;5054265;28;20025;-61
2023/09/11 01:15:23;;;;;;;14.45;10.10;;;;;;;;;;5053887;28;20090;-62
2023/09/11 01:18:26;;;;;;;12.50;10.27;;;;;;;;;;5054325;28;20020;-62
2023/09/11 01:21:15;;;;;;;12.63;10.32;;;;;;;;;;5047240;28;20045;-61
2023/09/11 01:24:14;;;;;;;15.05;10.27;;;;;;;;;;5053929;28;20041;-61
2023/09/11 01:27:17;;;;;;;13.45;9.90;;;;;;;;;;5054089;28;20483;-64
2023/09/11 01:29:43;;;;;;;17.08;9.82;;;;;;;;;;5053752;28;20364;-61
2023/09/11 01:32:10;;;;;;;12.35;9.70;;;;;;;;;;5053918;28;20025;-61
2023/09/11 01:34:36;;;;;;;13.52;9.82;;;;;;;;;;5053931;28;20074;-62
2023/09/11 01:37:01;;;;;;;14.82;9.60;;;;;;;;;;5053715;28;20017;-62
2023/09/11 01:39:27;;;;;;;12.68;10.02;;;;;;;;;;5053690;28;20068;-62
2023/09/11 01:41:58;;;;;;;14.23;10.32;;;;;;;;;;5053706;28;20258;-64
2023/09/11 01:44:30;;;;;;;13.45;9.98;;;;;;;;;;5053627;28;20029;-65
2023/09/11 01:46:57;;;;;;;13.80;10.55;;;;;;;;;;5053671;28;20108;-65
2023/09/11 01:49:24;;;;;;;12.00;10.27;;;;;;;;;;5053490;28;20067;-61
2023/09/11 01:51:55;;;;;;;13.38;10.98;;;;;;;;;;5053450;28;20069;-63
2023/09/11 01:54:21;;;;;;;12.60;10.25;;;;;;;;;;5053628;28;20073;-63
2023/09/11 01:56:47;;;;;;;12.20;9.73;;;;;;;;;;5053606;28;20405;-68
2023/09/11 01:59:15;;;;;;;14.48;11.00;;;;;;;;;;5052001;28;20029;-64
2023/09/11 02:01:43;;;;;;;15.63;10.93;;;;;;;;;;5053375;28;20041;-62
2023/09/11 02:04:08;;;;;;;16.08;10.50;;;;;;;;;;5053300;28;20029;-65
2023/09/11 02:06:33;;;;;;;13.95;10.07;;;;;;;;;;5053365;28;20036;-63
2023/09/11 02:08:59;;;;;;;15.32;9.95;;;;;;;;;;5053291;28;20028;-62
2023/09/11 02:11:24;;;;;;;12.70;10.52;;;;;;;;;;5053097;28;20033;-64
2023/09/11 02:13:51;;;;;;;14.50;10.75;;;;;;;;;;5053038;28;20023;-63
2023/09/11 02:16:16;;;;;;;11.48;9.70;;;;;;;;;;5052800;28;20055;-64
2023/09/11 02:18:42;;;;;;;11.82;9.63;;;;;;;;;;5052915;28;20029;-66
2023/09/11 02:21:07;;;;;;;14.48;10.77;;;;;;;;;;5052974;28;20520;-65
2023/09/11 02:23:32;;;;;;;12.30;9.60;;;;;;;;;;5052747;28;20035;-66
2023/09/11 02:25:58;;;;;;;14.65;11.43;;;;;;;;;;5053047;28;20470;-65
2023/09/11 02:28:23;;;;;;;15.80;11.38;;;;;;;;;;5052678;28;20060;-65
2023/09/11 02:30:50;;;;;;;12.38;10.27;;;;;;;;;;5052914;28;20131;-66
2023/09/11 02:33:15;;;;;;;17.92;11.40;;;;;;;;;;5052823;28;20036;-66
2023/09/11 02:35:41;;;;;;;19.15;13.82;;;;;;;;;;5052612;28;20017;-65
2023/09/11 02:38:06;;;;;;;24.40;13.93;;;;;;;;;;5052903;28;20060;-66
2023/09/11 02:40:34;;;;;;;25.85;13.38;;;;;;;;;;5052671;28;20028;-66
2023/09/11 02:42:59;;;;;;;20.05;13.00;;;;;;;;;;5052550;28;20382;-66
2023/09/11 02:45:25;;;;;;;19.35;12.82;;;;;;;;;;5052683;28;20025;-67
2023/09/11 02:47:50;;;;;;;16.48;11.90;;;;;;;;;;5052723;28;20028;-66
2023/09/11 02:50:16;;;;;;;16.35;11.65;;;;;;;;;;5052480;28;20576;-65
2023/09/11 02:52:41;;;;;;;17.83;11.30;;;;;;;;;;5052517;28;20029;-66
2023/09/11 02:55:11;;;;;;;17.17;10.77;;;;;;;;;;5052728;28;20021;-67
2023/09/11 02:57:36;;;;;;;15.23;11.15;;;;;;;;;;5052573;28;20029;-66
2023/09/11 03:00:05;;;;;;;14.13;10.65;;;;;;;;;;5052547;28;20094;-65
2023/09/11 03:02:31;;;;;;;13.27;10.75;;;;;;;;;;5052392;28;20037;-66
2023/09/11 03:04:57;;;;;;;13.57;11.18;;;;;;;;;;5052075;28;20460;-65
2023/09/11 03:07:22;;;;;;;14.20;11.25;;;;;;;;;;5052390;28;20374;-65
2023/09/11 03:09:47;;;;;;;15.80;10.38;;;;;;;;;;5052248;28;20390;-65
2023/09/11 03:12:13;;;;;;;14.25;10.90;;;;;;;;;;5052419;28;20033;-65
2023/09/11 03:14:41;;;;;;;13.23;10.70;;;;;;;;;;5052360;28;20021;-64
2023/09/11 03:17:07;;;;;;;13.50;10.23;;;;;;;;;;5051077;28;20101;-64
2023/09/11 03:19:34;;;;;;;12.27;9.95;;;;;;;;;;5052217;28;20033;-65
2023/09/11 03:21:59;;;;;;;14.77;10.15;;;;;;;;;;5051730;28;20029;-65
2023/09/11 03:24:25;;;;;;;14.50;9.38;;;;;;;;;;5052148;28;20132;-64
2023/09/11 03:26:50;;;;;;;13.27;9.90;;;;;;;;;;5052277;28;20048;-64
2023/09/11 03:29:17;;;;;;;13.55;9.90;;;;;;;;;;5055129;28;20055;-67
2023/09/11 03:31:42;;;;;;;14.32;10.32;;;;;;;;;;5056170;28;20029;-65
2023/09/11 03:34:08;;;;;;;13.40;10.35;;;;;;;;;;5056111;28;20020;-65
2023/09/11 03:36:33;;;;;;;13.32;9.73;;;;;;;;;;5055961;28;20033;-63
2023/09/11 03:38:58;;;;;;;12.25;10.25;;;;;;;;;;5055778;28;20105;-65
2023/09/11 03:41:24;;;;;;;14.88;10.30;;;;;;;;;;5055577;28;20123;-61
2023/09/11 03:43:49;;;;;;;19.13;11.63;;;;;;;;;;5056062;28;20021;-61
2023/09/11 03:46:15;;;;;;;13.90;10.52;;;;;;;;;;5056048;28;20040;-62
2023/09/11 03:48:41;;;;;;;17.88;10.48;;;;;;;;;;5056026;28;20052;-66
2023/09/11 03:51:06;;;;;;;12.25;9.77;;;;;;;;;;5055719;28;20081;-63
2023/09/11 03:53:32;;;;;;;22.55;10.20;;;;;;;;;;5055542;28;20332;-62
2023/09/11 03:55:57;;;;;;;16.83;10.25;;;;;;;;;;5055552;28;20021;-63
2023/09/11 03:58:23;;;;;;;14.45;9.98;;;;;;;;;;5055915;28;20036;-63
2023/09/11 04:00:48;;;;;;;14.60;9.98;;;;;;;;;;5055617;28;20032;-63
2023/09/11 04:03:14;;;;;;;17.42;10.48;;;;;;;;;;5055582;28;20028;-61
2023/09/11 04:05:39;;;;;;;13.65;11.45;;;;;;;;;;5055426;28;20021;-61
2023/09/11 04:08:05;;;;;;;20.10;11.75;;;;;;;;;;5055240;28;20059;-62
2023/09/11 04:10:31;;;;;;;13.73;10.73;;;;;;;;;;5055330;28;20102;-61
2023/09/11 04:12:56;;;;;;;14.57;10.13;;;;;;;;;;5055355;28;20483;-61
2023/09/11 04:15:22;;;;;;;14.63;9.57;;;;;;;;;;5055381;28;20053;-63
2023/09/11 04:17:47;;;;;;;17.73;10.70;;;;;;;;;;5055530;28;20083;-61
2023/09/11 04:20:12;;;;;;;16.17;10.27;;;;;;;;;;5055334;28;20141;-62
2023/09/11 04:22:38;;;;;;;15.88;10.25;;;;;;;;;;5054616;28;20032;-63
2023/09/11 04:25:03;;;;;;;15.63;10.07;;;;;;;;;;5055300;28;20033;-63
2023/09/11 04:27:29;;;;;;;16.27;10.30;;;;;;;;;;5055131;28;20032;-62
2023/09/11 04:29:56;;;;;;;19.75;12.20;;;;;;;;;;5054993;28;20062;-63
2023/09/11 04:32:21;;;;;;;14.63;9.95;;;;;;;;;;5055092;28;20041;-62
2023/09/11 04:34:47;;;;;;;18.95;11.52;;;;;;;;;;5055034;28;20039;-63
2023/09/11 04:37:13;;;;;;;15.10;10.25;;;;;;;;;;5054602;28;20382;-65
2023/09/11 04:39:39;;;;;;;18.50;11.38;;;;;;;;;;5054362;28;20018;-62
2023/09/11 04:42:05;;;;;;;20.27;11.02;;;;;;;;;;5054410;28;20029;-66
2023/09/11 04:44:31;;;;;;;15.20;11.43;;;;;;;;;;5054901;28;20028;-62
2023/09/11 04:46:56;;;;;;;19.27;11.20;;;;;;;;;;5054773;28;20037;-64
2023/09/11 04:49:22;;;;;;;19.05;11.70;;;;;;;;;;5053421;28;20120;-64
2023/09/11 04:51:48;;;;;;;15.27;10.98;;;;;;;;;;5053092;28;20051;-62
2023/09/11 04:54:13;;;;;;;16.42;12.10;;;;;;;;;;5054576;28;20036;-63
2023/09/11 04:56:39;;;;;;;16.00;10.75;;;;;;;;;;5054721;28;20426;-62
2023/09/11 04:59:04;;;;;;;21.98;12.38;;;;;;;;;;5054700;28;20029;-62
2023/09/11 05:01:29;;;;;;;18.63;13.55;;;;;;;;;;5054184;28;20032;-62
2023/09/11 05:03:55;;;;;;;19.55;12.77;;;;;;;;;;5054516;28;20025;-62
2023/09/11 05:06:20;;;;;;;18.70;11.80;;;;;;;;;;5054347;28;20024;-62
2023/09/11 05:08:46;;;;;;;21.45;13.20;;;;;;;;;;5054260;28;20079;-63
2023/09/11 05:11:11;;;;;;;19.80;11.57;;;;;;;;;;5054309;28;20108;-62
2023/09/11 05:13:37;;;;;;;20.98;12.15;;;;;;;;;;5053885;28;20033;-62
2023/09/11 05:16:03;;;;;;;15.15;11.20;;;;;;;;;;5054180;28;20492;-63
2023/09/11 05:18:28;;;;;;;24.30;12.52;;;;;;;;;;5054276;28;20022;-63
2023/09/11 05:20:53;;;;;;;20.42;12.32;;;;;;;;;;5053665;28;20071;-63
2023/09/11 05:23:19;;;;;;;21.80;12.43;;;;;;;;;;5053739;28;20112;-63
2023/09/11 05:25:45;;;;;;;34.60;12.32;;;;;;;;;;5054326;28;20024;-62
2023/09/11 05:28:10;;;;;;;24.08;11.68;;;;;;;;;;5054080;28;20031;-62
2023/09/11 05:30:35;;;;;;;20.50;10.80;;;;;;;;;;5054010;28;20048;-65
2023/09/11 05:33:01;;;;;;;25.10;12.35;;;;;;;;;;5053941;28;20032;-62
2023/09/11 05:35:26;;;;;;;22.85;11.68;;;;;;;;;;5053169;28;20021;-64
2023/09/11 05:37:52;;;;;;;20.02;11.55;;;;;;;;;;5053704;28;20021;-63
2023/09/11 05:40:17;;;;;;;24.50;12.25;;;;;;;;;;5053795;28;20097;-63
2023/09/11 05:42:43;;;;;;;18.55;11.75;;;;;;;;;;5053672;28;20412;-65
2023/09/11 05:45:09;;;;;;;23.80;11.55;;;;;;;;;;5053796;28;20025;-64
2023/09/11 05:47:34;;;;;;;28.42;11.05;;;;;;;;;;5053591;28;20032;-65
2023/09/11 05:50:01;;;;;;;24.02;13.02;;;;;;;;;;5051795;28;20041;-63
2023/09/11 05:52:30;;;;;;;20.85;11.85;;;;;;;;;;5052528;28;20045;-62
2023/09/11 05:54:55;;;;;;;17.58;10.77;;;;;;;;;;5053383;28;20390;-63
2023/09/11 05:57:21;;;;;;;24.67;11.07;;;;;;;;;;5053248;28;20035;-62
2023/09/11 05:59:46;;;;;;;18.45;11.43;;;;;;;;;;5053512;28;20478;-64
2023/09/11 06:02:12;;;;;;;19.30;11.32;;;;;;;;;;5053279;28;20041;-66
2023/09/11 06:04:37;;;;;;;19.08;10.98;;;;;;;;;;5053101;28;20017;-62
2023/09/11 06:07:03;;;;;;;18.50;11.77;;;;;;;;;;5053552;28;20488;-63
2023/09/11 06:09:29;;;;;;;19.45;11.85;;;;;;;;;;5053133;28;20039;-63
2023/09/11 06:11:55;;;;;;;20.02;11.88;;;;;;;;;;5053007;28;20029;-65
2023/09/11 06:14:20;;;;;;;20.67;12.43;;;;;;;;;;5052824;28;20425;-67
2023/09/11 06:16:45;;;;;;;21.98;14.60;;;;;;;;;;5053285;28;20041;-67
2023/09/11 06:19:11;;;;;;;16.13;12.77;;;;;;;;;;5052641;28;20478;-67
2023/09/11 06:21:36;;;;;;;21.80;13.43;;;;;;;;;;5052031;28;20434;-66
2023/09/11 06:24:04;;;;;;;20.20;14.90;;;;;;;;;;5045598;28;20064;-67
2023/09/11 06:26:30;;;;;;;22.15;14.45;;;;;;;;;;5038315;28;20021;-67
2023/09/11 06:28:55;;;;;;;21.35;14.65;;;;;;;;;;5052620;28;20020;-67
2023/09/11 06:31:21;;;;;;;21.85;13.73;;;;;;;;;;5042044;28;20038;-67
2023/09/11 06:33:46;;;;;;;24.25;12.77;;;;;;;;;;5032463;28;20022;-68
2023/09/11 06:36:13;;;;;;;22.70;12.00;;;;;;;;;;5040791;28;20033;-68
2023/09/11 06:38:38;;;;;;;13.68;11.80;;;;;;;;;;5052395;28;20026;-66
2023/09/11 06:41:03;;;;;;;22.15;12.07;;;;;;;;;;5032581;28;20025;-66
2023/09/11 06:43:29;;;;;;;17.52;11.68;;;;;;;;;;5032601;28;20029;-66
2023/09/11 06:45:54;;;;;;;16.88;11.18;;;;;;;;;;5032741;28;20021;-67
2023/09/11 06:48:21;;;;;;;14.98;11.27;;;;;;;;;;5032055;28;20424;-63
2023/09/11 06:50:46;;;;;;;18.27;11.88;;;;;;;;;;5031042;28;20041;-64
2023/09/11 06:53:12;;;;;;;21.00;11.32;;;;;;;;;;5032781;28;20021;-67
2023/09/11 06:55:44;;;;;;;17.35;11.63;;;;;;;;;;5032305;28;20395;-65
2023/09/11 06:58:10;;;;;;;16.95;11.10;;;;;;;;;;5049436;28;20021;-64
2023/09/11 07:00:36;;;;;;;16.77;11.55;;;;;;;;;;5043696;28;20033;-64
2023/09/11 07:03:01;;;;;;;19.10;10.93;;;;;;;;;;5037235;28;20025;-65
2023/09/11 07:05:28;;;;;;;19.80;11.40;;;;;;;;;;5052070;28;20414;-63
2023/09/11 07:07:53;;;;;;;17.13;10.98;;;;;;;;;;5041329;28;20506;-64
2023/09/11 07:10:19;;;;;;;18.05;10.32;;;;;;;;;;5032289;28;20057;-65
2023/09/11 07:12:45;;;;;;;22.80;11.57;;;;;;;;;;5032356;28;20021;-63
2023/09/11 07:15:11;;;;;;;19.05;11.50;;;;;;;;;;5043607;28;20075;-64
2023/09/11 07:17:36;;;;;;;17.60;10.13;;;;;;;;;;5051933;28;20056;-66
2023/09/11 07:20:04;;;;;;;18.58;10.75;;;;;;;;;;5052241;28;20471;-66
2023/09/11 07:22:30;;;;;;;17.80;10.43;;;;;;;;;;5052068;28;20033;-67
2023/09/11 07:24:56;;;;;;;18.40;10.63;;;;;;;;;;5052288;28;20059;-63
2023/09/11 07:27:22;;;;;;;17.88;10.60;;;;;;;;;;5051793;28;20425;-67
2023/09/11 07:29:48;;;;;;;25.27;10.55;;;;;;;;;;5051918;28;20032;-66
2023/09/11 07:32:14;;;;;;;18.35;10.45;;;;;;;;;;5051673;28;20054;-67
2023/09/11 07:34:40;;;;;;;17.05;9.63;;;;;;;;;;5052059;28;20033;-66
2023/09/11 07:37:05;;;;;;;15.32;9.63;;;;;;;;;;5052010;28;20031;-67
2023/09/11 07:39:31;;;;;;;12.93;9.00;;;;;;;;;;5051976;28;20032;-67
2023/09/11 07:41:56;;;;;;;16.48;9.13;;;;;;;;;;5051910;28;20032;-67
2023/09/11 07:44:22;;;;;;;11.55;8.70;;;;;;;;;;5051992;28;20036;-65
2023/09/11 07:46:48;;;;;;;17.92;10.00;;;;;;;;;;5051774;28;20051;-67
2023/09/11 07:49:14;;;;;;;15.65;9.05;;;;;;;;;;5051850;28;20033;-65
2023/09/11 07:51:39;;;;;;;15.63;8.95;;;;;;;;;;5051588;28;20512;-64
2023/09/11 07:54:05;;;;;;;9.50;8.20;;;;;;;;;;5051890;28;20033;-64
2023/09/11 07:56:30;;;;;;;10.38;7.82;;;;;;;;;;5051716;28;20053;-64
2023/09/11 07:58:56;;;;;;;14.45;8.23;;;;;;;;;;5051673;28;20021;-64
2023/09/11 08:01:27;;;;;;;16.17;8.60;;;;;;;;;;5051302;28;20095;-64
2023/09/11 08:03:52;;;;;;;17.83;8.38;;;;;;;;;;5051864;28;20049;-63
2023/09/11 08:06:22;;;;;;;23.85;13.77;;;;;;;;;;5051654;28;20464;-64
2023/09/11 08:08:48;;;;;;;11.60;8.60;;;;;;;;;;5031656;28;20018;-61
2023/09/11 08:11:19;;;;;;;17.05;8.98;;;;;;;;;;5031792;28;20360;-61
2023/09/11 08:13:50;;;;;;;12.25;7.15;;;;;;;;;;5031793;28;20438;-61
2023/09/11 08:16:16;;;;;;;10.73;8.10;;;;;;;;;;5034178;28;20032;-60
2023/09/11 08:18:42;;;;;;;14.20;8.40;;;;;;;;;;5051676;28;20064;-60
2023/09/11 08:21:08;;;;;;;16.20;8.35;;;;;;;;;;5054932;28;20091;-61
2023/09/11 08:23:33;;;;;;;18.85;9.18;;;;;;;;;;5054812;28;20024;-61
2023/09/11 08:26:01;;;;;;;14.60;8.30;;;;;;;;;;5054796;28;20029;-61
2023/09/11 08:28:27;;;;;;;14.32;9.18;;;;;;;;;;5054836;28;20029;-61
2023/09/11 08:30:53;;;;;;;13.95;7.70;;;;;;;;;;5053414;28;20029;-63
2023/09/11 08:33:21;;;;;;;13.63;9.00;;;;;;;;;;5054822;28;20086;-61
2023/09/11 08:35:48;;;;;;;16.08;8.30;;;;;;;;;;5054722;28;20039;-61
2023/09/11 08:38:14;;;;;;;17.20;9.73;;;;;;;;;;5054827;28;20486;-61
2023/09/11 08:40:42;;;;;;;26.05;8.88;;;;;;;;;;5054769;28;20101;-61
2023/09/11 08:43:07;;;;;;;19.27;9.27;;;;;;;;;;5054736;28;20159;-61
2023/09/11 08:45:33;;;;;;;15.38;8.90;;;;;;;;;;5054540;28;20060;-60
2023/09/11 08:47:59;;;;;;;14.80;7.85;;;;;;;;;;5054744;28;20420;-61
2023/09/11 08:50:29;;;;;;;13.52;8.05;;;;;;;;;;5054335;28;20037;-61
2023/09/11 08:52:57;;;;;;;16.63;7.80;;;;;;;;;;5054799;28;20083;-61
2023/09/11 08:55:25;;;;;;;17.48;7.75;;;;;;;;;;5053123;28;20021;-60
2023/09/11 08:57:51;;;;;;;14.75;7.07;;;;;;;;;;5054332;28;20025;-62
2023/09/11 09:00:17;;;;;;;14.65;7.70;;;;;;;;;;5054387;28;20028;-63
2023/09/11 09:02:43;;;;;;;16.75;8.45;;;;;;;;;;5054271;28;20033;-62
2023/09/11 09:05:09;;;;;;;17.30;7.28;;;;;;;;;;5054370;28;20060;-61
2023/09/11 09:07:35;;;;;;;17.70;8.02;;;;;;;;;;5043658;28;20059;-63
2023/09/11 09:10:03;;;;;;;14.70;7.38;;;;;;;;;;5034448;28;20029;-61
2023/09/11 09:12:28;;;;;;;13.93;7.53;;;;;;;;;;5034035;28;20029;-61
2023/09/11 09:14:54;;;;;;;11.27;7.55;;;;;;;;;;5043300;28;20051;-61
2023/09/11 09:17:20;;;;;;;10.15;6.78;;;;;;;;;;5054057;28;20429;-61
2023/09/11 09:19:45;;;;;;;13.27;7.20;;;;;;;;;;5054004;28;20052;-63
2023/09/11 09:22:12;;;;;;;12.30;6.95;;;;;;;;;;5052678;28;20078;-61
2023/09/11 09:24:50;;;;;;;13.10;6.88;;;;;;;;;;5053846;28;20447;-61
2023/09/11 09:27:16;;;;;;;12.13;6.57;;;;;;;;;;5053259;28;20533;-62
2023/09/11 09:29:41;;;;;;;14.77;7.05;;;;;;;;;;5053856;28;20059;-61
2023/09/11 09:32:09;;;;;;;10.95;6.40;;;;;;;;;;5052618;28;20025;-61
2023/09/11 09:34:37;;;;;;;12.20;6.63;;;;;;;;;;5053880;28;20108;-61
2023/09/11 09:37:02;;;;;;;12.10;7.10;;;;;;;;;;5052458;28;20036;-62
2023/09/11 09:39:29;;;;;;;8.73;6.50;;;;;;;;;;5053744;28;20051;-61
2023/09/11 09:42:04;;;;;;;13.20;7.15;;;;;;;;;;5053630;28;20405;-60
2023/09/11 09:44:34;;;;;;;9.23;6.50;;;;;;;;;;5053608;28;20052;-60
2023/09/11 09:47:23;;;;;;;12.45;6.75;;;;;;;;;;5053421;28;20044;-60
2023/09/11 09:49:54;;;;;;;14.18;6.40;;;;;;;;;;5052486;28;20104;-60
2023/09/11 09:52:29;;;;;;;10.35;6.18;;;;;;;;;;5053316;28;20029;-60
2023/09/11 09:54:58;;;;;;;9.38;6.10;;;;;;;;;;5053459;28;20032;-60
2023/09/11 09:57:25;;;;;;;12.38;6.00;;;;;;;;;;5053180;28;20075;-62
2023/09/11 09:59:57;;;;;;;8.18;5.55;;;;;;;;;;5053392;28;20036;-64
2023/09/11 10:02:26;;;;;;;8.90;5.35;;;;;;;;;;5053174;28;20029;-62
2023/09/11 10:04:57;;;;;;;11.60;6.30;;;;;;;;;;5079241;28;20458;-62
2023/09/11 10:07:41;;;;;;;10.25;6.80;;;;;;;;;;5052324;28;20182;-62
2023/09/11 10:10:27;;;;;;;14.45;6.00;;;;;;;;;;5049871;28;20060;-61
2023/09/11 10:13:07;;;;;;;7.80;6.05;;;;;;;;;;5046533;28;20040;-62
2023/09/11 10:15:34;;;;;;;8.88;5.63;;;;;;;;;;5051421;28;20023;-61
2023/09/11 10:18:01;;;;;;;7.82;5.20;;;;;;;;;;5049882;28;20025;-61
2023/09/11 10:20:27;;;;;;;9.68;5.30;;;;;;;;;;5052190;28;20052;-63
2023/09/11 10:22:58;;;;;;;8.15;5.22;;;;;;;;;;5051814;28;20039;-64
2023/09/11 10:25:26;;;;;;;7.35;4.85;;;;;;;;;;5049702;28;20435;-62
2023/09/11 10:28:24;;;;;;;8.85;5.30;;;;;;;;;;5051331;28;20523;-63
2023/09/11 10:31:02;;;;;;;6.25;4.88;;;;;;;;;;5010732;28;20088;-60
2023/09/11 10:33:28;;;;;;;10.07;4.88;;;;;;;;;;5010995;28;20065;-63
2023/09/11 10:35:58;;;;;;;8.20;5.10;;;;;;;;;;5010777;28;20542;-63
2023/09/11 10:38:28;;;;;;;6.82;4.93;;;;;;;;;;5010156;28;20046;-66
2023/09/11 10:40:57;;;;;;;10.73;4.90;;;;;;;;;;5010588;28;20037;-66
2023/09/11 10:43:22;;;;;;;9.32;4.80;;;;;;;;;;5010730;28;20057;-62
2023/09/11 10:45:49;;;;;;;9.52;5.18;;;;;;;;;;5010799;28;20192;-63
2023/09/11 10:48:31;;;;;;;5.68;4.75;;;;;;;;;;5010729;28;20034;-64
2023/09/11 10:50:59;;;;;;;7.38;4.55;;;;;;;;;;5010677;28;20173;-63
2023/09/11 10:53:31;;;;;;;6.28;4.80;;;;;;;;;;5010780;28;20042;-63
2023/09/11 10:55:57;;;;;;;7.93;4.63;;;;;;;;;;4994303;28;20451;-65
2023/09/11 10:58:25;;;;;;;9.60;4.40;;;;;;;;;;5010869;28;20052;-66
2023/09/11 11:00:55;;;;;;;8.20;4.82;;;;;;;;;;5010601;28;20041;-61
2023/09/11 11:03:21;;;;;;;8.80;4.60;;;;;;;;;;5010531;28;20065;-61
2023/09/11 11:05:47;;;;;;;5.60;4.63;;;;;;;;;;5010361;28;20487;-64
2023/09/11 11:08:14;;;;;;;7.35;4.70;;;;;;;;;;5042706;28;20090;-64
2023/09/11 11:10:41;;;;;;;9.45;4.85;;;;;;;;;;5052304;28;20040;-65
2023/09/11 11:13:08;;;;;;;7.32;4.82;;;;;;;;;;5050591;28;20033;-63
2023/09/11 11:15:34;;;;;;;8.43;4.72;;;;;;;;;;5051854;28;20044;-64
2023/09/11 11:18:13;;;;;;;11.55;4.82;;;;;;;;;;5052361;28;20461;-64
2023/09/11 11:21:06;;;;;;;9.60;4.88;;;;;;;;;;5050021;28;20081;-65
2023/09/11 11:23:51;;;;;;;9.43;4.68;;;;;;;;;;5050141;28;20048;-65
2023/09/11 11:26:16;;;;;;;7.82;4.78;;;;;;;;;;5050194;28;20104;-64
2023/09/11 11:28:45;;;;;;;9.68;5.00;;;;;;;;;;5051647;28;20478;-64
2023/09/11 11:31:16;;;;;;;9.32;4.55;;;;;;;;;;5052290;28;20057;-64
2023/09/11 11:33:45;;;;;;;7.75;4.80;;;;;;;;;;5051572;28;20112;-64
2023/09/11 11:36:12;;;;;;;8.55;4.78;;;;;;;;;;5051564;28;20473;-67
2023/09/11 11:38:38;;;;;;;8.48;4.70;;;;;;;;;;5051688;28;20124;-65
2023/09/11 11:41:04;;;;;;;11.88;4.80;;;;;;;;;;5051326;28;20028;-65
2023/09/11 11:43:33;;;;;;;8.95;4.70;;;;;;;;;;5051433;28;20025;-65
2023/09/11 11:45:58;;;;;;;10.63;4.73;;;;;;;;;;5050996;28;20431;-65
2023/09/11 11:48:27;;;;;;;7.80;4.90;;;;;;;;;;5051723;28;20353;-65
2023/09/11 11:50:52;;;;;;;9.90;6.28;;;;;;;;;;5053969;28;20041;-65
2023/09/11 11:53:24;;;;;;;8.02;4.97;;;;;;;;;;5055391;28;20032;-67
2023/09/11 11:55:52;;;;;;;10.50;5.10;;;;;;;;;;5055603;28;20033;-67
2023/09/11 11:58:17;;;;;;;10.13;5.50;;;;;;;;;;5055632;28;20056;-67
2023/09/11 12:01:12;;;;;;;7.20;5.05;;;;;;;;;;5054123;28;20067;-67
2023/09/11 12:03:48;;;;;;;7.60;5.10;;;;;;;;;;5046648;28;20055;-69
2023/09/11 12:06:14;;;;;;;7.30;5.43;;;;;;;;;;5055161;28;20078;-68
2023/09/11 12:08:41;;;;;;;9.05;5.05;;;;;;;;;;5054975;28;20040;-66
2023/09/11 12:11:08;;;;;;;7.25;5.07;;;;;;;;;;5055369;28;20462;-66
2023/09/11 12:13:33;;;;;;;6.60;5.28;;;;;;;;;;5055140;28;20033;-66
2023/09/11 12:16:00;;;;;;;9.98;5.07;;;;;;;;;;5055200;28;20039;-66
2023/09/11 12:18:35;;;;;;;7.93;5.53;;;;;;;;;;5055104;28;20491;-65
2023/09/11 12:21:03;;;;;;;7.95;5.32;;;;;;;;;;5053919;28;20029;-68
2023/09/11 12:23:29;;;;;;;8.38;5.10;;;;;;;;;;5046945;28;20463;-68
2023/09/11 12:25:55;;;;;;;7.13;5.40;;;;;;;;;;5035233;28;20030;-69
2023/09/11 12:28:22;;;;;;;9.48;5.32;;;;;;;;;;5035091;28;20397;-68
2023/09/11 12:30:49;;;;;;;7.10;5.50;;;;;;;;;;5034696;28;20109;-68
2023/09/11 12:33:21;;;;;;;6.38;5.22;;;;;;;;;;5035184;28;20513;-67
2023/09/11 12:35:47;;;;;;;7.15;5.30;;;;;;;;;;5045531;28;20122;-69
2023/09/11 12:38:13;;;;;;;8.50;5.30;;;;;;;;;;5054965;28;20052;-68
2023/09/11 12:40:42;;;;;;;9.02;5.47;;;;;;;;;;5054935;28;20104;-67
2023/09/11 12:43:08;;;;;;;6.88;5.53;;;;;;;;;;5054644;28;20493;-68
2023/09/11 12:45:34;;;;;;;10.02;5.38;;;;;;;;;;5054681;28;20044;-67
2023/09/11 12:48:02;;;;;;;13.15;6.07;;;;;;;;;;5054743;28;20017;-68
2023/09/11 12:50:29;;;;;;;8.68;5.65;;;;;;;;;;5054058;28;20068;-66
2023/09/11 12:52:58;;;;;;;8.40;5.38;;;;;;;;;;5054542;28;20055;-67
2023/09/11 12:55:25;;;;;;;8.23;5.33;;;;;;;;;;5053229;28;20029;-66
2023/09/11 12:57:51;;;;;;;8.05;5.47;;;;;;;;;;5054530;28;20052;-68
2023/09/11 13:00:17;;;;;;;10.77;5.60;;;;;;;;;;5054194;28;20447;-66
2023/09/11 13:02:42;;;;;;;9.82;5.28;;;;;;;;;;5054111;28;20025;-67
2023/09/11 13:05:09;;;;;;;9.13;5.53;;;;;;;;;;5053735;28;20036;-69
2023/09/11 13:07:37;;;;;;;8.93;5.60;;;;;;;;;;5044085;28;20033;-68
2023/09/11 13:10:03;;;;;;;9.27;5.43;;;;;;;;;;5034280;28;20025;-67
2023/09/11 13:12:29;;;;;;;8.63;5.78;;;;;;;;;;5034341;28;20030;-66
2023/09/11 13:14:55;;;;;;;11.38;5.50;;;;;;;;;;5043179;28;20492;-66
2023/09/11 13:17:21;;;;;;;7.03;5.97;;;;;;;;;;5052848;28;20029;-67
2023/09/11 13:19:48;;;;;;;13.02;6.07;;;;;;;;;;5053255;28;20362;-67
2023/09/11 13:22:13;;;;;;;8.45;5.65;;;;;;;;;;5053691;28;20064;-67
2023/09/11 13:24:39;;;;;;;8.57;5.30;;;;;;;;;;5053771;28;20125;-65
2023/09/11 13:27:08;;;;;;;9.45;5.60;;;;;;;;;;5054084;28;20040;-65
2023/09/11 13:29:34;;;;;;;8.45;5.60;;;;;;;;;;5053380;28;20029;-66
2023/09/11 13:31:59;;;;;;;10.23;5.57;;;;;;;;;;5053905;28;20082;-65
2023/09/11 13:34:25;;;;;;;6.38;5.25;;;;;;;;;;5053141;28;20048;-65
2023/09/11 13:36:53;;;;;;;9.75;5.13;;;;;;;;;;5053326;28;20086;-65
2023/09/11 13:39:19;;;;;;;7.70;4.88;;;;;;;;;;5051475;28;20112;-65
2023/09/11 13:41:45;;;;;;;14.75;5.60;;;;;;;;;;5053460;28;20029;-66
2023/09/11 13:44:10;;;;;;;11.10;5.28;;;;;;;;;;5053488;28;20482;-64
2023/09/11 13:46:36;;;;;;;7.00;5.55;;;;;;;;;;5053530;28;20095;-64
2023/09/11 13:49:01;;;;;;;9.35;5.53;;;;;;;;;;5053249;28;20489;-63
2023/09/11 13:51:27;;;;;;;9.13;5.10;;;;;;;;;;5052912;28;20052;-65
2023/09/11 13:53:53;;;;;;;7.95;5.70;;;;;;;;;;5053331;28;20532;-65
2023/09/11 13:56:18;;;;;;;12.45;5.68;;;;;;;;;;5053448;28;20067;-63
2023/09/11 13:58:44;;;;;;;13.23;5.40;;;;;;;;;;5053333;28;20052;-64
2023/09/11 14:01:09;;;;;;;10.07;5.68;;;;;;;;;;5053054;28;20082;-65
2023/09/11 14:03:35;;;;;;;7.15;5.45;;;;;;;;;;5053014;28;20390;-65
2023/09/11 14:06:02;;;;;;;15.02;5.88;;;;;;;;;;5053149;28;20024;-65
2023/09/11 14:08:27;;;;;;;8.60;5.50;;;;;;;;;;5053010;28;20052;-66
2023/09/11 14:10:53;;;;;;;10.68;5.22;;;;;;;;;;5053061;28;20053;-64
2023/09/11 14:13:20;;;;;;;10.48;5.20;;;;;;;;;;5052225;28;20111;-65
2023/09/11 14:15:46;;;;;;;9.27;5.38;;;;;;;;;;5052984;28;20029;-67
2023/09/11 14:18:11;;;;;;;9.20;5.53;;;;;;;;;;5052927;28;20031;-67
2023/09/11 14:20:37;;;;;;;7.18;4.88;;;;;;;;;;5052881;28;20021;-65
2023/09/11 14:23:02;;;;;;;7.35;4.88;;;;;;;;;;5052655;28;20025;-66
2023/09/11 14:25:28;;;;;;;9.75;5.65;;;;;;;;;;5052642;28;20078;-66
2023/09/11 14:27:53;;;;;;;8.73;5.35;;;;;;;;;;5052843;28;20100;-65
2023/09/11 14:30:19;;;;;;;8.45;5.43;;;;;;;;;;5052707;28;20028;-65